sensor_id;sensor_type;location;lat;lon;timestamp;pressure;altitude;pressure_sealevel;temperature;humidity
8653;BME280;4364;52.426;9.424;2023-04-29T00:00:23;100506.13;;;11.25;100.00
8653;BME280;4364;52.426;9.424;2023-04-29T00:02:50;100503.81;;;11.08;100.00
8653;BME280;4364;52.426;9.424;2023-04-29T00:05:17;100510.78;;;11.19;100.00
8653;BME280;4364;52.426;9.424;2023-04-29T00:07:44;100505.09;;;11.16;100.00
8653;BME280;4364;52.426;9.424;2023-04-29T00:10:10;100504.41;;;11.05;100.00
8653;BME280;4364;52.426;9.424;2023-04-29T00:12:40;100507.16;;;11.00;100.00
8653;BME280;4364;52.426;9.424;2023-04-29T00:15:07;100507.88;;;11.10;100.00
8653;BME280;4364;52.426;9.424;2023-04-29T00:17:34;100496.72;;;11.12;100.00
8653;BME280;4364;52.426;9.424;2023-04-29T00:20:02;100500.88;;;10.99;100.00
8653;BME280;4364;52.426;9.424;2023-04-29T00:22:29;100502.72;;;11.09;100.00
8653;BME280;4364;52.426;9.424;2023-04-29T00:24:55;100507.72;;;10.97;100.00
8653;BME280;4364;52.426;9.424;2023-04-29T00:27:22;100508.00;;;10.95;100.00
8653;BME280;4364;52.426;9.424;2023-04-29T00:29:48;100508.72;;;11.06;100.00
8653;BME280;4364;52.426;9.424;2023-04-29T00:32:15;100510.97;;;10.99;100.00
8653;BME280;4364;52.426;9.424;2023-04-29T00:34:45;100514.81;;;10.98;100.00
8653;BME280;4364;52.426;9.424;2023-04-29T00:37:11;100516.59;;;11.07;100.00
8653;BME280;4364;52.426;9.424;2023-04-29T00:39:38;100513.41;;;11.00;100.00
8653;BME280;4364;52.426;9.424;2023-04-29T00:42:04;100522.09;;;11.02;100.00
8653;BME280;4364;52.426;9.424;2023-04-29T00:44:31;100510.16;;;10.98;100.00
8653;BME280;4364;52.426;9.424;2023-04-29T00:46:57;100520.81;;;10.94;100.00
8653;BME280;4364;52.426;9.424;2023-04-29T00:49:25;100532.56;;;10.85;100.00
8653;BME280;4364;52.426;9.424;2023-04-29T00:51:55;100529.84;;;10.85;100.00
8653;BME280;4364;52.426;9.424;2023-04-29T00:54:23;100534.75;;;10.83;100.00
8653;BME280;4364;52.426;9.424;2023-04-29T00:56:49;100539.38;;;10.82;100.00
8653;BME280;4364;52.426;9.424;2023-04-29T00:59:17;100535.34;;;10.74;100.00
8653;BME280;4364;52.426;9.424;2023-04-29T01:01:43;100540.00;;;10.69;100.00
8653;BME280;4364;52.426;9.424;2023-04-29T01:04:12;100542.19;;;10.67;100.00
8653;BME280;4364;52.426;9.424;2023-04-29T01:09:42;100550.09;;;10.63;100.00
8653;BME280;4364;52.426;9.424;2023-04-29T01:12:20;100551.19;;;10.62;100.00
8653;BME280;4364;52.426;9.424;2023-04-29T01:15:21;100557.16;;;10.69;100.00
8653;BME280;4364;52.426;9.424;2023-04-29T01:18:04;100554.94;;;10.71;100.00
8653;BME280;4364;52.426;9.424;2023-04-29T01:20:31;100561.53;;;10.60;100.00
8653;BME280;4364;52.426;9.424;2023-04-29T01:22:58;100566.94;;;10.65;100.00
8653;BME280;4364;52.426;9.424;2023-04-29T01:25:25;100560.22;;;10.57;100.00
8653;BME280;4364;52.426;9.424;2023-04-29T01:28:10;100570.53;;;10.55;100.00
8653;BME280;4364;52.426;9.424;2023-04-29T01:36:07;100561.81;;;10.59;100.00
8653;BME280;4364;52.426;9.424;2023-04-29T01:38:43;100568.66;;;10.51;100.00
8653;BME280;4364;52.426;9.424;2023-04-29T01:41:18;100569.75;;;10.50;100.00
8653;BME280;4364;52.426;9.424;2023-04-29T01:43:55;100574.91;;;10.51;100.00
8653;BME280;4364;52.426;9.424;2023-04-29T01:46:22;100582.75;;;10.58;100.00
8653;BME280;4364;52.426;9.424;2023-04-29T01:48:53;100577.63;;;10.51;100.00
8653;BME280;4364;52.426;9.424;2023-04-29T01:51:20;100590.97;;;10.48;100.00
8653;BME280;4364;52.426;9.424;2023-04-29T01:53:47;100584.97;;;10.56;100.00
8653;BME280;4364;52.426;9.424;2023-04-29T01:56:13;100580.94;;;10.43;100.00
8653;BME280;4364;52.426;9.424;2023-04-29T01:59:06;100593.69;;;10.48;100.00
8653;BME280;4364;52.426;9.424;2023-04-29T02:01:52;100601.81;;;10.53;100.00
8653;BME280;4364;52.426;9.424;2023-04-29T02:04:19;100601.31;;;10.46;100.00
8653;BME280;4364;52.426;9.424;2023-04-29T02:06:45;100608.63;;;10.50;100.00
8653;BME280;4364;52.426;9.424;2023-04-29T02:09:12;100607.59;;;10.41;100.00
8653;BME280;4364;52.426;9.424;2023-04-29T02:11:45;100612.47;;;10.44;100.00
8653;BME280;4364;52.426;9.424;2023-04-29T02:14:12;100622.22;;;10.45;100.00
8653;BME280;4364;52.426;9.424;2023-04-29T02:16:39;100623.34;;;10.44;100.00
8653;BME280;4364;52.426;9.424;2023-04-29T02:19:06;100630.69;;;10.38;100.00
8653;BME280;4364;52.426;9.424;2023-04-29T02:21:32;100632.31;;;10.29;100.00
8653;BME280;4364;52.426;9.424;2023-04-29T02:24:00;100637.25;;;10.32;100.00
8653;BME280;4364;52.426;9.424;2023-04-29T02:26:27;100644.56;;;10.27;100.00
8653;BME280;4364;52.426;9.424;2023-04-29T02:28:54;100644.59;;;10.16;100.00
8653;BME280;4364;52.426;9.424;2023-04-29T02:31:22;100650.00;;;10.16;100.00
8653;BME280;4364;52.426;9.424;2023-04-29T02:33:49;100653.31;;;10.03;100.00
8653;BME280;4364;52.426;9.424;2023-04-29T02:36:16;100648.44;;;9.90;100.00
8653;BME280;4364;52.426;9.424;2023-04-29T02:38:43;100653.06;;;9.89;100.00
8653;BME280;4364;52.426;9.424;2023-04-29T02:41:15;100665.00;;;9.93;100.00
8653;BME280;4364;52.426;9.424;2023-04-29T02:43:41;100673.16;;;9.88;100.00
8653;BME280;4364;52.426;9.424;2023-04-29T02:46:09;100668.25;;;9.85;100.00
8653;BME280;4364;52.426;9.424;2023-04-29T02:48:36;100670.72;;;9.81;100.00
8653;BME280;4364;52.426;9.424;2023-04-29T02:51:03;100663.94;;;9.79;100.00
8653;BME280;4364;52.426;9.424;2023-04-29T02:53:29;100676.41;;;9.80;100.00
8653;BME280;4364;52.426;9.424;2023-04-29T02:55:56;100681.56;;;9.71;100.00
8653;BME280;4364;52.426;9.424;2023-04-29T02:58:23;100679.94;;;9.75;100.00
8653;BME280;4364;52.426;9.424;2023-04-29T03:00:49;100676.94;;;9.72;100.00
8653;BME280;4364;52.426;9.424;2023-04-29T03:03:16;100683.75;;;9.64;100.00
8653;BME280;4364;52.426;9.424;2023-04-29T03:05:43;100682.66;;;9.55;100.00
8653;BME280;4364;52.426;9.424;2023-04-29T03:08:10;100684.81;;;9.58;100.00
8653;BME280;4364;52.426;9.424;2023-04-29T03:10:36;100683.44;;;9.55;100.00
8653;BME280;4364;52.426;9.424;2023-04-29T03:13:06;100683.75;;;9.59;100.00
8653;BME280;4364;52.426;9.424;2023-04-29T03:15:34;100684.03;;;9.57;100.00
8653;BME280;4364;52.426;9.424;2023-04-29T03:18:01;100693.78;;;9.58;100.00
8653;BME280;4364;52.426;9.424;2023-04-29T03:20:32;100702.16;;;9.41;100.00
8653;BME280;4364;52.426;9.424;2023-04-29T03:23:01;100705.16;;;9.45;100.00
8653;BME280;4364;52.426;9.424;2023-04-29T03:25:27;100701.63;;;9.39;100.00
8653;BME280;4364;52.426;9.424;2023-04-29T03:27:54;100711.13;;;9.37;100.00
8653;BME280;4364;52.426;9.424;2023-04-29T03:30:21;100714.09;;;9.35;100.00
8653;BME280;4364;52.426;9.424;2023-04-29T03:32:51;100713.28;;;9.24;100.00
8653;BME280;4364;52.426;9.424;2023-04-29T03:35:17;100719.50;;;9.30;100.00
8653;BME280;4364;52.426;9.424;2023-04-29T03:38:12;100723.59;;;9.27;100.00
8653;BME280;4364;52.426;9.424;2023-04-29T03:40:39;100723.88;;;9.31;100.00
8653;BME280;4364;52.426;9.424;2023-04-29T03:43:06;100727.38;;;9.21;100.00
8653;BME280;4364;52.426;9.424;2023-04-29T03:45:34;100730.09;;;9.32;100.00
8653;BME280;4364;52.426;9.424;2023-04-29T03:48:01;100728.50;;;9.31;100.00
8653;BME280;4364;52.426;9.424;2023-04-29T03:50:29;100729.00;;;9.17;100.00
8653;BME280;4364;52.426;9.424;2023-04-29T03:52:56;100736.03;;;9.18;100.00
8653;BME280;4364;52.426;9.424;2023-04-29T03:55:23;100745.56;;;9.21;100.00
8653;BME280;4364;52.426;9.424;2023-04-29T03:57:49;100738.19;;;9.16;100.00
8653;BME280;4364;52.426;9.424;2023-04-29T04:00:17;100745.03;;;9.24;100.00
8653;BME280;4364;52.426;9.424;2023-04-29T04:02:48;100742.56;;;9.22;100.00
8653;BME280;4364;52.426;9.424;2023-04-29T04:05:15;100744.72;;;9.20;100.00
8653;BME280;4364;52.426;9.424;2023-04-29T04:07:48;100749.34;;;9.20;100.00
8653;BME280;4364;52.426;9.424;2023-04-29T04:10:41;100748.53;;;9.19;100.00
8653;BME280;4364;52.426;9.424;2023-04-29T04:13:19;100750.13;;;9.20;100.00
8653;BME280;4364;52.426;9.424;2023-04-29T04:15:49;100757.22;;;9.21;100.00
8653;BME280;4364;52.426;9.424;2023-04-29T04:18:17;100761.53;;;9.12;100.00
8653;BME280;4364;52.426;9.424;2023-04-29T04:20:44;100766.16;;;9.22;100.00
8653;BME280;4364;52.426;9.424;2023-04-29T04:23:11;100772.44;;;9.27;100.00
8653;BME280;4364;52.426;9.424;2023-04-29T04:25:37;100782.94;;;9.14;100.00
8653;BME280;4364;52.426;9.424;2023-04-29T04:28:22;100775.09;;;9.12;100.00
8653;BME280;4364;52.426;9.424;2023-04-29T04:30:57;100789.75;;;9.16;100.00
8653;BME280;4364;52.426;9.424;2023-04-29T04:33:24;100787.78;;;9.01;100.00
8653;BME280;4364;52.426;9.424;2023-04-29T04:35:51;100794.81;;;8.97;100.00
8653;BME280;4364;52.426;9.424;2023-04-29T04:38:18;100800.00;;;8.99;100.00
8653;BME280;4364;52.426;9.424;2023-04-29T04:40:45;100807.03;;;9.00;100.00
8653;BME280;4364;52.426;9.424;2023-04-29T04:43:33;100808.41;;;9.02;100.00
8653;BME280;4364;52.426;9.424;2023-04-29T04:46:12;100812.69;;;8.93;100.00
8653;BME280;4364;52.426;9.424;2023-04-29T04:48:49;100823.81;;;8.97;100.00
8653;BME280;4364;52.426;9.424;2023-04-29T04:51:18;100824.59;;;8.87;100.00
8653;BME280;4364;52.426;9.424;2023-04-29T04:53:44;100831.03;;;8.76;100.00
8653;BME280;4364;52.426;9.424;2023-04-29T04:56:17;100834.06;;;8.84;100.00
8653;BME280;4364;52.426;9.424;2023-04-29T04:58:45;100833.00;;;8.85;100.00
8653;BME280;4364;52.426;9.424;2023-04-29T05:01:12;100834.56;;;8.76;100.00
8653;BME280;4364;52.426;9.424;2023-04-29T05:03:39;100851.63;;;8.77;100.00
8653;BME280;4364;52.426;9.424;2023-04-29T05:06:06;100849.75;;;8.77;100.00
8653;BME280;4364;52.426;9.424;2023-04-29T05:08:33;100852.00;;;8.85;100.00
8653;BME280;4364;52.426;9.424;2023-04-29T05:11:02;100850.06;;;8.81;100.00
8653;BME280;4364;52.426;9.424;2023-04-29T05:13:29;100860.94;;;8.86;100.00
8653;BME280;4364;52.426;9.424;2023-04-29T05:15:55;100856.59;;;8.90;100.00
8653;BME280;4364;52.426;9.424;2023-04-29T05:18:25;100854.19;;;8.94;100.00
8653;BME280;4364;52.426;9.424;2023-04-29T05:20:52;100864.19;;;8.88;100.00
8653;BME280;4364;52.426;9.424;2023-04-29T05:23:18;100867.38;;;8.80;100.00
8653;BME280;4364;52.426;9.424;2023-04-29T05:25:45;100875.00;;;8.83;100.00
8653;BME280;4364;52.426;9.424;2023-04-29T05:28:12;100880.47;;;8.88;100.00
8653;BME280;4364;52.426;9.424;2023-04-29T05:30:40;100885.81;;;8.78;100.00
8653;BME280;4364;52.426;9.424;2023-04-29T05:33:07;100880.41;;;8.78;100.00
8653;BME280;4364;52.426;9.424;2023-04-29T05:35:33;100885.25;;;8.70;100.00
8653;BME280;4364;52.426;9.424;2023-04-29T05:38:00;100888.50;;;8.73;100.00
8653;BME280;4364;52.426;9.424;2023-04-29T05:40:36;100892.59;;;8.80;100.00
8653;BME280;4364;52.426;9.424;2023-04-29T05:43:38;100897.16;;;8.69;100.00
8653;BME280;4364;52.426;9.424;2023-04-29T05:46:05;100893.88;;;8.67;100.00
8653;BME280;4364;52.426;9.424;2023-04-29T05:48:31;100894.44;;;8.69;100.00
8653;BME280;4364;52.426;9.424;2023-04-29T05:50:58;100909.38;;;8.72;100.00
8653;BME280;4364;52.426;9.424;2023-04-29T05:53:25;100902.31;;;8.71;100.00
8653;BME280;4364;52.426;9.424;2023-04-29T05:55:51;100907.72;;;8.71;100.00
8653;BME280;4364;52.426;9.424;2023-04-29T05:58:20;100906.13;;;8.75;100.00
8653;BME280;4364;52.426;9.424;2023-04-29T06:00:46;100914.50;;;8.74;100.00
8653;BME280;4364;52.426;9.424;2023-04-29T06:03:19;100916.13;;;8.69;100.00
8653;BME280;4364;52.426;9.424;2023-04-29T06:05:50;100919.44;;;8.77;100.00
8653;BME280;4364;52.426;9.424;2023-04-29T06:08:32;100919.72;;;8.80;100.00
8653;BME280;4364;52.426;9.424;2023-04-29T06:11:22;100921.63;;;8.80;100.00
8653;BME280;4364;52.426;9.424;2023-04-29T06:13:48;100931.91;;;8.78;100.00
8653;BME280;4364;52.426;9.424;2023-04-29T06:16:16;100943.56;;;8.78;100.00
8653;BME280;4364;52.426;9.424;2023-04-29T06:18:43;100938.44;;;8.82;100.00
8653;BME280;4364;52.426;9.424;2023-04-29T06:21:09;100942.09;;;8.98;100.00
8653;BME280;4364;52.426;9.424;2023-04-29T06:23:35;100941.88;;;9.04;100.00
8653;BME280;4364;52.426;9.424;2023-04-29T06:26:08;100962.19;;;9.02;100.00
8653;BME280;4364;52.426;9.424;2023-04-29T06:28:34;100960.03;;;8.99;100.00
8653;BME280;4364;52.426;9.424;2023-04-29T06:31:01;100959.94;;;8.94;100.00
8653;BME280;4364;52.426;9.424;2023-04-29T06:33:28;100967.31;;;8.98;100.00
8653;BME280;4364;52.426;9.424;2023-04-29T06:35:55;100969.56;;;9.06;100.00
8653;BME280;4364;52.426;9.424;2023-04-29T06:38:52;100970.47;;;9.17;100.00
8653;BME280;4364;52.426;9.424;2023-04-29T06:41:37;100976.94;;;9.16;100.00
8653;BME280;4364;52.426;9.424;2023-04-29T06:44:13;100983.19;;;9.17;100.00
8653;BME280;4364;52.426;9.424;2023-04-29T06:46:51;100990.94;;;9.40;100.00
8653;BME280;4364;52.426;9.424;2023-04-29T06:49:25;100989.66;;;9.48;100.00
8653;BME280;4364;52.426;9.424;2023-04-29T06:51:52;100993.19;;;9.54;100.00
8653;BME280;4364;52.426;9.424;2023-04-29T06:54:19;100995.88;;;9.49;100.00
8653;BME280;4364;52.426;9.424;2023-04-29T06:56:48;101003.59;;;9.67;100.00
8653;BME280;4364;52.426;9.424;2023-04-29T06:59:16;101006.38;;;9.77;100.00
8653;BME280;4364;52.426;9.424;2023-04-29T07:01:42;101017.31;;;9.93;100.00
8653;BME280;4364;52.426;9.424;2023-04-29T07:04:11;101019.56;;;10.11;100.00
8653;BME280;4364;52.426;9.424;2023-04-29T07:06:38;101018.53;;;10.23;100.00
8653;BME280;4364;52.426;9.424;2023-04-29T07:09:05;101024.53;;;10.30;99.41
8653;BME280;4364;52.426;9.424;2023-04-29T07:11:31;101030.00;;;10.35;98.95
8653;BME280;4364;52.426;9.424;2023-04-29T07:13:58;101038.09;;;10.30;97.99
8653;BME280;4364;52.426;9.424;2023-04-29T07:16:28;101047.34;;;10.29;97.49
8653;BME280;4364;52.426;9.424;2023-04-29T07:18:55;101039.97;;;10.19;96.22
8653;BME280;4364;52.426;9.424;2023-04-29T07:21:21;101044.88;;;10.27;95.27
8653;BME280;4364;52.426;9.424;2023-04-29T07:23:48;101054.16;;;10.31;95.31
8653;BME280;4364;52.426;9.424;2023-04-29T07:26:16;101048.41;;;10.23;95.78
8653;BME280;4364;52.426;9.424;2023-04-29T07:28:44;101066.56;;;10.12;95.86
8653;BME280;4364;52.426;9.424;2023-04-29T07:31:10;101065.22;;;10.14;96.46
8653;BME280;4364;52.426;9.424;2023-04-29T07:33:40;101063.97;;;10.32;96.04
8653;BME280;4364;52.426;9.424;2023-04-29T07:36:09;101078.69;;;10.47;95.73
8653;BME280;4364;52.426;9.424;2023-04-29T07:38:36;101079.25;;;10.49;95.50
8653;BME280;4364;52.426;9.424;2023-04-29T07:41:02;101082.81;;;10.60;96.05
8653;BME280;4364;52.426;9.424;2023-04-29T07:43:32;101083.66;;;10.65;95.28
8653;BME280;4364;52.426;9.424;2023-04-29T07:45:59;101091.25;;;10.58;94.25
8653;BME280;4364;52.426;9.424;2023-04-29T07:48:26;101101.59;;;10.66;94.75
8653;BME280;4364;52.426;9.424;2023-04-29T07:50:53;101105.16;;;10.72;93.57
8653;BME280;4364;52.426;9.424;2023-04-29T07:53:19;101103.28;;;10.83;93.88
8653;BME280;4364;52.426;9.424;2023-04-29T07:55:49;101107.88;;;10.82;92.38
8653;BME280;4364;52.426;9.424;2023-04-29T07:58:17;101110.09;;;11.06;90.42
8653;BME280;4364;52.426;9.424;2023-04-29T08:00:44;101109.03;;;11.27;88.68
8653;BME280;4364;52.426;9.424;2023-04-29T08:03:10;101115.59;;;11.37;88.57
8653;BME280;4364;52.426;9.424;2023-04-29T08:05:37;101121.31;;;11.35;87.07
8653;BME280;4364;52.426;9.424;2023-04-29T08:08:04;101124.00;;;11.61;87.23
8653;BME280;4364;52.426;9.424;2023-04-29T08:10:32;101125.13;;;11.60;84.62
8653;BME280;4364;52.426;9.424;2023-04-29T08:12:59;101129.47;;;11.76;83.47
8653;BME280;4364;52.426;9.424;2023-04-29T08:15:27;101129.47;;;11.97;84.09
8653;BME280;4364;52.426;9.424;2023-04-29T08:17:53;101127.53;;;12.08;82.80
8653;BME280;4364;52.426;9.424;2023-04-29T08:20:20;101137.38;;;11.78;82.64
8653;BME280;4364;52.426;9.424;2023-04-29T08:22:46;101142.00;;;11.72;82.39
8653;BME280;4364;52.426;9.424;2023-04-29T08:25:13;101139.81;;;11.69;81.35
8653;BME280;4364;52.426;9.424;2023-04-29T08:27:39;101142.56;;;11.95;82.23
8653;BME280;4364;52.426;9.424;2023-04-29T08:30:06;101141.16;;;11.97;80.61
8653;BME280;4364;52.426;9.424;2023-04-29T08:32:33;101143.28;;;12.21;78.92
8653;BME280;4364;52.426;9.424;2023-04-29T08:35:01;101148.50;;;12.12;79.87
8653;BME280;4364;52.426;9.424;2023-04-29T08:37:28;101151.75;;;12.19;79.29
8653;BME280;4364;52.426;9.424;2023-04-29T08:39:54;101161.06;;;12.13;78.70
8653;BME280;4364;52.426;9.424;2023-04-29T08:42:31;101152.31;;;12.16;78.90
8653;BME280;4364;52.426;9.424;2023-04-29T08:44:59;101151.16;;;12.43;79.44
8653;BME280;4364;52.426;9.424;2023-04-29T08:47:32;101161.16;;;12.68;77.39
8653;BME280;4364;52.426;9.424;2023-04-29T08:50:03;101152.16;;;12.63;75.25
8653;BME280;4364;52.426;9.424;2023-04-29T08:52:31;101162.56;;;12.55;76.67
8653;BME280;4364;52.426;9.424;2023-04-29T08:54:59;101169.63;;;12.67;75.64
8653;BME280;4364;52.426;9.424;2023-04-29T08:57:29;101170.34;;;12.83;75.03
8653;BME280;4364;52.426;9.424;2023-04-29T08:59:58;101170.13;;;12.69;75.65
8653;BME280;4364;52.426;9.424;2023-04-29T09:02:26;101176.78;;;12.47;74.53
8653;BME280;4364;52.426;9.424;2023-04-29T09:04:59;101192.09;;;12.38;75.39
8653;BME280;4364;52.426;9.424;2023-04-29T09:07:30;101179.56;;;12.27;76.88
8653;BME280;4364;52.426;9.424;2023-04-29T09:09:58;101191.56;;;12.15;76.76
8653;BME280;4364;52.426;9.424;2023-04-29T09:12:24;101198.41;;;12.02;77.30
8653;BME280;4364;52.426;9.424;2023-04-29T09:14:51;101197.59;;;12.02;77.75
8653;BME280;4364;52.426;9.424;2023-04-29T09:17:19;101205.25;;;11.95;78.09
8653;BME280;4364;52.426;9.424;2023-04-29T09:19:46;101213.41;;;12.05;78.11
8653;BME280;4364;52.426;9.424;2023-04-29T09:22:12;101215.03;;;12.06;77.70
8653;BME280;4364;52.426;9.424;2023-04-29T09:24:39;101217.22;;;11.99;77.68
8653;BME280;4364;52.426;9.424;2023-04-29T09:27:06;101218.88;;;11.95;78.27
8653;BME280;4364;52.426;9.424;2023-04-29T09:29:33;101217.22;;;11.94;78.68
8653;BME280;4364;52.426;9.424;2023-04-29T09:32:17;101223.75;;;12.08;77.87
8653;BME280;4364;52.426;9.424;2023-04-29T09:34:44;101229.19;;;12.29;77.40
8653;BME280;4364;52.426;9.424;2023-04-29T09:37:25;101222.06;;;12.33;76.22
8653;BME280;4364;52.426;9.424;2023-04-29T09:39:53;101231.84;;;12.49;76.09
8653;BME280;4364;52.426;9.424;2023-04-29T09:42:19;101235.41;;;12.55;74.12
8653;BME280;4364;52.426;9.424;2023-04-29T09:44:46;101235.72;;;12.43;73.89
8653;BME280;4364;52.426;9.424;2023-04-29T09:47:12;101236.22;;;12.55;73.48
8653;BME280;4364;52.426;9.424;2023-04-29T09:49:41;101238.41;;;12.48;73.71
8653;BME280;4364;52.426;9.424;2023-04-29T09:52:15;101244.91;;;12.68;73.47
8653;BME280;4364;52.426;9.424;2023-04-29T09:54:42;101241.66;;;12.55;73.41
8653;BME280;4364;52.426;9.424;2023-04-29T09:57:11;101237.28;;;12.65;73.41
8653;BME280;4364;52.426;9.424;2023-04-29T09:59:38;101248.16;;;12.80;73.44
8653;BME280;4364;52.426;9.424;2023-04-29T10:04:38;101247.56;;;12.88;72.64
8653;BME280;4364;52.426;9.424;2023-04-29T10:07:05;101237.53;;;13.39;70.74
8653;BME280;4364;52.426;9.424;2023-04-29T10:09:35;101233.19;;;13.72;69.68
8653;BME280;4364;52.426;9.424;2023-04-29T10:12:06;101240.69;;;13.90;67.88
8653;BME280;4364;52.426;9.424;2023-04-29T10:14:46;101238.38;;;13.74;68.04
8653;BME280;4364;52.426;9.424;2023-04-29T10:17:19;101245.78;;;14.02;67.71
8653;BME280;4364;52.426;9.424;2023-04-29T10:20:01;101230.50;;;14.31;64.67
8653;BME280;4364;52.426;9.424;2023-04-29T10:22:47;101231.25;;;14.66;63.19
8653;BME280;4364;52.426;9.424;2023-04-29T10:25:15;101245.84;;;14.80;62.89
8653;BME280;4364;52.426;9.424;2023-04-29T10:27:43;101240.91;;;14.29;63.85
8653;BME280;4364;52.426;9.424;2023-04-29T10:30:11;101249.00;;;14.09;62.58
8653;BME280;4364;52.426;9.424;2023-04-29T10:32:39;101246.84;;;14.06;63.00
8653;BME280;4364;52.426;9.424;2023-04-29T10:35:18;101242.63;;;14.49;62.55
8653;BME280;4364;52.426;9.424;2023-04-29T10:37:47;101247.47;;;14.57;61.73
8653;BME280;4364;52.426;9.424;2023-04-29T10:40:43;101250.38;;;14.36;61.92
8653;BME280;4364;52.426;9.424;2023-04-29T10:43:12;101247.25;;;14.24;61.32
8653;BME280;4364;52.426;9.424;2023-04-29T10:45:38;101247.94;;;14.35;61.04
8653;BME280;4364;52.426;9.424;2023-04-29T10:48:13;101243.59;;;14.34;59.63
8653;BME280;4364;52.426;9.424;2023-04-29T10:53:13;101244.22;;;14.50;58.24
8653;BME280;4364;52.426;9.424;2023-04-29T10:55:40;101250.59;;;14.45;59.28
8653;BME280;4364;52.426;9.424;2023-04-29T11:01:05;101249.91;;;14.00;59.56
8653;BME280;4364;52.426;9.424;2023-04-29T11:03:46;101249.66;;;13.96;60.77
8653;BME280;4364;52.426;9.424;2023-04-29T11:06:14;101248.47;;;13.78;61.71
8653;BME280;4364;52.426;9.424;2023-04-29T11:08:41;101240.50;;;13.82;62.08
8653;BME280;4364;52.426;9.424;2023-04-29T11:11:08;101247.31;;;13.84;62.24
8653;BME280;4364;52.426;9.424;2023-04-29T11:13:39;101251.97;;;14.13;61.75
8653;BME280;4364;52.426;9.424;2023-04-29T11:16:07;101235.38;;;14.58;59.19
8653;BME280;4364;52.426;9.424;2023-04-29T11:19:02;101243.66;;;14.53;59.10
8653;BME280;4364;52.426;9.424;2023-04-29T11:21:29;101246.63;;;14.32;58.64
8653;BME280;4364;52.426;9.424;2023-04-29T11:23:58;101249.13;;;14.29;59.41
8653;BME280;4364;52.426;9.424;2023-04-29T11:26:26;101244.34;;;14.39;58.07
8653;BME280;4364;52.426;9.424;2023-04-29T11:28:53;101246.97;;;14.79;57.04
8653;BME280;4364;52.426;9.424;2023-04-29T11:31:25;101245.69;;;14.95;55.99
8653;BME280;4364;52.426;9.424;2023-04-29T11:33:54;101255.72;;;15.00;56.55
8653;BME280;4364;52.426;9.424;2023-04-29T11:36:20;101253.69;;;14.87;57.29
8653;BME280;4364;52.426;9.424;2023-04-29T11:38:47;101253.19;;;14.60;56.07
8653;BME280;4364;52.426;9.424;2023-04-29T11:41:14;101258.91;;;14.64;55.91
8653;BME280;4364;52.426;9.424;2023-04-29T11:43:41;101258.38;;;14.86;55.79
8653;BME280;4364;52.426;9.424;2023-04-29T11:46:13;101262.16;;;14.90;55.76
8653;BME280;4364;52.426;9.424;2023-04-29T11:48:45;101261.53;;;14.74;56.92
8653;BME280;4364;52.426;9.424;2023-04-29T11:51:14;101275.50;;;14.43;58.85
8653;BME280;4364;52.426;9.424;2023-04-29T11:53:41;101278.00;;;14.11;59.84
8653;BME280;4364;52.426;9.424;2023-04-29T11:56:08;101271.72;;;14.10;60.37
8653;BME280;4364;52.426;9.424;2023-04-29T11:58:36;101268.19;;;14.04;59.95
8653;BME280;4364;52.426;9.424;2023-04-29T12:01:03;101278.59;;;14.02;60.48
8653;BME280;4364;52.426;9.424;2023-04-29T12:03:31;101277.69;;;14.12;60.25
8653;BME280;4364;52.426;9.424;2023-04-29T12:05:58;101285.09;;;14.12;60.62
8653;BME280;4364;52.426;9.424;2023-04-29T12:08:28;101284.72;;;13.89;58.96
8653;BME280;4364;52.426;9.424;2023-04-29T12:10:56;101288.44;;;14.03;58.88
8653;BME280;4364;52.426;9.424;2023-04-29T12:13:26;101288.03;;;14.20;58.66
8653;BME280;4364;52.426;9.424;2023-04-29T12:15:54;101285.81;;;14.22;57.05
8653;BME280;4364;52.426;9.424;2023-04-29T12:18:21;101287.59;;;14.37;56.02
8653;BME280;4364;52.426;9.424;2023-04-29T12:20:49;101289.25;;;14.33;55.00
8653;BME280;4364;52.426;9.424;2023-04-29T12:23:21;101280.34;;;14.52;55.06
8653;BME280;4364;52.426;9.424;2023-04-29T12:25:56;101286.09;;;15.04;54.21
8653;BME280;4364;52.426;9.424;2023-04-29T12:28:23;101282.53;;;15.65;52.50
8653;BME280;4364;52.426;9.424;2023-04-29T12:30:51;101279.88;;;15.79;52.06
8653;BME280;4364;52.426;9.424;2023-04-29T12:33:24;101299.41;;;15.72;51.23
8653;BME280;4364;52.426;9.424;2023-04-29T12:35:57;101296.66;;;15.34;51.79
8653;BME280;4364;52.426;9.424;2023-04-29T12:38:25;101299.16;;;15.31;52.23
8653;BME280;4364;52.426;9.424;2023-04-29T12:40:54;101288.06;;;15.41;52.47
8653;BME280;4364;52.426;9.424;2023-04-29T12:43:28;101294.50;;;15.31;53.83
8653;BME280;4364;52.426;9.424;2023-04-29T12:46:09;101292.13;;;15.25;52.44
8653;BME280;4364;52.426;9.424;2023-04-29T12:48:39;101299.31;;;15.21;53.79
8653;BME280;4364;52.426;9.424;2023-04-29T12:51:08;101291.34;;;14.76;53.69
8653;BME280;4364;52.426;9.424;2023-04-29T12:53:35;101281.59;;;15.13;54.37
8653;BME280;4364;52.426;9.424;2023-04-29T12:56:02;101290.00;;;15.41;53.83
8653;BME280;4364;52.426;9.424;2023-04-29T12:58:29;101291.97;;;15.16;52.24
8653;BME280;4364;52.426;9.424;2023-04-29T13:00:57;101297.63;;;14.76;53.87
8653;BME280;4364;52.426;9.424;2023-04-29T13:03:24;101300.84;;;14.54;55.77
8653;BME280;4364;52.426;9.424;2023-04-29T13:05:52;101295.53;;;14.39;56.85
8653;BME280;4364;52.426;9.424;2023-04-29T13:08:20;101302.56;;;14.16;57.27
8653;BME280;4364;52.426;9.424;2023-04-29T13:10:46;101308.59;;;14.13;57.64
8653;BME280;4364;52.426;9.424;2023-04-29T13:13:12;101307.78;;;14.12;58.11
8653;BME280;4364;52.426;9.424;2023-04-29T13:15:39;101307.41;;;14.24;56.81
8653;BME280;4364;52.426;9.424;2023-04-29T13:18:05;101307.94;;;14.26;57.41
8653;BME280;4364;52.426;9.424;2023-04-29T13:20:32;101302.22;;;14.22;58.06
8653;BME280;4364;52.426;9.424;2023-04-29T13:23:07;101315.53;;;14.00;58.56
8653;BME280;4364;52.426;9.424;2023-04-29T13:25:34;101300.25;;;13.99;58.42
8653;BME280;4364;52.426;9.424;2023-04-29T13:28:02;101299.66;;;14.02;58.89
8653;BME280;4364;52.426;9.424;2023-04-29T13:30:30;101299.72;;;13.97;59.78
8653;BME280;4364;52.426;9.424;2023-04-29T13:32:57;101304.25;;;14.12;59.06
8653;BME280;4364;52.426;9.424;2023-04-29T13:35:35;101314.16;;;14.02;59.05
8653;BME280;4364;52.426;9.424;2023-04-29T13:38:03;101316.72;;;14.23;59.04